sensor_id;sensor_type;location;lat;lon;timestamp;P1;durP1;ratioP1;P2;durP2;ratioP2
11935;SDS011;6027;48.576;9.180;2022-07-30T00:00:56;7.25;;;3.95;;
11935;SDS011;6027;48.576;9.180;2022-07-30T00:03:22;4.20;;;3.40;;
11935;SDS011;6027;48.576;9.180;2022-07-30T00:05:48;3.55;;;3.20;;
11935;SDS011;6027;48.576;9.180;2022-07-30T00:08:14;4.03;;;2.63;;
11935;SDS011;6027;48.576;9.180;2022-07-30T00:10:40;4.07;;;3.10;;
11935;SDS011;6027;48.576;9.180;2022-07-30T00:13:05;5.53;;;2.90;;
11935;SDS011;6027;48.576;9.180;2022-07-30T00:15:31;4.60;;;3.10;;
11935;SDS011;6027;48.576;9.180;2022-07-30T00:17:57;6.03;;;3.10;;
11935;SDS011;6027;48.576;9.180;2022-07-30T00:20:22;3.53;;;3.20;;
11935;SDS011;6027;48.576;9.180;2022-07-30T00:22:48;5.63;;;3.60;;
11935;SDS011;6027;48.576;9.180;2022-07-30T00:25:13;5.18;;;3.33;;
11935;SDS011;6027;48.576;9.180;2022-07-30T00:27:39;3.25;;;2.95;;
11935;SDS011;6027;48.576;9.180;2022-07-30T00:30:05;3.35;;;3.05;;
11935;SDS011;6027;48.576;9.180;2022-07-30T00:32:31;3.50;;;3.08;;
11935;SDS011;6027;48.576;9.180;2022-07-30T00:34:56;4.15;;;3.13;;
11935;SDS011;6027;48.576;9.180;2022-07-30T00:37:22;5.13;;;3.70;;
11935;SDS011;6027;48.576;9.180;2022-07-30T00:39:47;3.67;;;3.38;;
11935;SDS011;6027;48.576;9.180;2022-07-30T00:42:13;3.55;;;3.25;;
11935;SDS011;6027;48.576;9.180;2022-07-30T00:44:38;4.55;;;3.40;;
11935;SDS011;6027;48.576;9.180;2022-07-30T00:47:05;5.53;;;3.20;;
11935;SDS011;6027;48.576;9.180;2022-07-30T00:49:30;5.20;;;3.30;;
11935;SDS011;6027;48.576;9.180;2022-07-30T00:51:56;4.38;;;3.08;;
11935;SDS011;6027;48.576;9.180;2022-07-30T00:54:21;4.18;;;3.40;;
11935;SDS011;6027;48.576;9.180;2022-07-30T00:56:47;3.92;;;2.88;;
11935;SDS011;6027;48.576;9.180;2022-07-30T00:59:13;4.55;;;3.10;;
11935;SDS011;6027;48.576;9.180;2022-07-30T01:01:39;3.38;;;2.80;;
11935;SDS011;6027;48.576;9.180;2022-07-30T01:04:04;5.78;;;3.35;;
11935;SDS011;6027;48.576;9.180;2022-07-30T01:06:35;4.07;;;3.05;;
11935;SDS011;6027;48.576;9.180;2022-07-30T01:09:05;6.00;;;3.13;;
11935;SDS011;6027;48.576;9.180;2022-07-30T01:11:33;3.47;;;3.05;;
11935;SDS011;6027;48.576;9.180;2022-07-30T01:14:01;4.65;;;3.20;;
11935;SDS011;6027;48.576;9.180;2022-07-30T01:16:28;5.13;;;3.00;;
11935;SDS011;6027;48.576;9.180;2022-07-30T01:18:55;3.53;;;3.22;;
11935;SDS011;6027;48.576;9.180;2022-07-30T01:21:42;4.00;;;3.05;;
11935;SDS011;6027;48.576;9.180;2022-07-30T01:24:23;5.75;;;3.20;;
11935;SDS011;6027;48.576;9.180;2022-07-30T01:26:53;3.72;;;3.05;;
11935;SDS011;6027;48.576;9.180;2022-07-30T01:29:19;5.65;;;3.22;;
11935;SDS011;6027;48.576;9.180;2022-07-30T01:31:46;3.90;;;3.38;;
11935;SDS011;6027;48.576;9.180;2022-07-30T01:34:14;4.07;;;3.50;;
11935;SDS011;6027;48.576;9.180;2022-07-30T01:36:41;4.22;;;3.20;;
11935;SDS011;6027;48.576;9.180;2022-07-30T01:39:09;3.60;;;3.30;;
11935;SDS011;6027;48.576;9.180;2022-07-30T01:41:35;5.20;;;3.50;;
11935;SDS011;6027;48.576;9.180;2022-07-30T01:44:02;4.20;;;3.13;;
11935;SDS011;6027;48.576;9.180;2022-07-30T01:46:29;4.30;;;3.25;;
11935;SDS011;6027;48.576;9.180;2022-07-30T01:48:56;6.25;;;3.20;;
11935;SDS011;6027;48.576;9.180;2022-07-30T01:51:23;3.70;;;3.30;;
11935;SDS011;6027;48.576;9.180;2022-07-30T01:53:49;4.32;;;3.35;;
11935;SDS011;6027;48.576;9.180;2022-07-30T01:56:16;3.25;;;2.95;;
11935;SDS011;6027;48.576;9.180;2022-07-30T01:58:44;3.55;;;3.10;;
11935;SDS011;6027;48.576;9.180;2022-07-30T02:01:12;4.38;;;3.10;;
11935;SDS011;6027;48.576;9.180;2022-07-30T02:03:38;3.25;;;2.95;;
11935;SDS011;6027;48.576;9.180;2022-07-30T02:06:04;4.15;;;3.20;;
11935;SDS011;6027;48.576;9.180;2022-07-30T02:08:35;3.85;;;3.20;;
11935;SDS011;6027;48.576;9.180;2022-07-30T02:11:14;7.32;;;3.00;;
11935;SDS011;6027;48.576;9.180;2022-07-30T02:14:01;4.63;;;3.20;;
11935;SDS011;6027;48.576;9.180;2022-07-30T02:16:33;4.28;;;3.22;;
11935;SDS011;6027;48.576;9.180;2022-07-30T02:19:04;4.32;;;3.40;;
11935;SDS011;6027;48.576;9.180;2022-07-30T02:21:37;4.18;;;3.22;;
11935;SDS011;6027;48.576;9.180;2022-07-30T02:24:10;6.88;;;3.05;;
11935;SDS011;6027;48.576;9.180;2022-07-30T02:26:40;4.25;;;3.47;;
11935;SDS011;6027;48.576;9.180;2022-07-30T02:29:07;3.67;;;3.33;;
11935;SDS011;6027;48.576;9.180;2022-07-30T02:31:34;4.35;;;3.10;;
11935;SDS011;6027;48.576;9.180;2022-07-30T02:34:03;4.38;;;3.15;;
11935;SDS011;6027;48.576;9.180;2022-07-30T02:36:31;3.83;;;3.20;;
11935;SDS011;6027;48.576;9.180;2022-07-30T02:38:57;4.45;;;3.25;;
11935;SDS011;6027;48.576;9.180;2022-07-30T02:41:24;3.35;;;3.00;;
11935;SDS011;6027;48.576;9.180;2022-07-30T02:43:52;3.50;;;3.20;;
11935;SDS011;6027;48.576;9.180;2022-07-30T02:46:19;3.72;;;3.13;;
11935;SDS011;6027;48.576;9.180;2022-07-30T02:48:47;6.30;;;3.55;;
11935;SDS011;6027;48.576;9.180;2022-07-30T02:51:14;4.80;;;3.20;;
11935;SDS011;6027;48.576;9.180;2022-07-30T02:53:45;3.85;;;3.55;;
11935;SDS011;6027;48.576;9.180;2022-07-30T02:56:12;4.10;;;3.70;;
11935;SDS011;6027;48.576;9.180;2022-07-30T02:58:40;4.60;;;3.10;;
11935;SDS011;6027;48.576;9.180;2022-07-30T03:01:08;3.50;;;3.20;;
11935;SDS011;6027;48.576;9.180;2022-07-30T03:03:38;4.45;;;3.15;;
11935;SDS011;6027;48.576;9.180;2022-07-30T03:06:06;3.92;;;3.33;;
11935;SDS011;6027;48.576;9.180;2022-07-30T03:08:33;5.55;;;3.60;;
11935;SDS011;6027;48.576;9.180;2022-07-30T03:11:00;4.97;;;3.53;;
11935;SDS011;6027;48.576;9.180;2022-07-30T03:13:27;8.98;;;3.60;;
11935;SDS011;6027;48.576;9.180;2022-07-30T03:15:53;4.68;;;3.33;;
11935;SDS011;6027;48.576;9.180;2022-07-30T03:18:22;3.55;;;3.25;;
11935;SDS011;6027;48.576;9.180;2022-07-30T03:20:49;3.67;;;3.33;;
11935;SDS011;6027;48.576;9.180;2022-07-30T03:23:18;4.25;;;3.30;;
11935;SDS011;6027;48.576;9.180;2022-07-30T03:25:56;5.70;;;3.55;;
11935;SDS011;6027;48.576;9.180;2022-07-30T03:28:25;4.50;;;3.40;;
11935;SDS011;6027;48.576;9.180;2022-07-30T03:30:54;3.53;;;3.22;;
11935;SDS011;6027;48.576;9.180;2022-07-30T03:33:20;3.47;;;3.03;;
11935;SDS011;6027;48.576;9.180;2022-07-30T03:35:47;5.45;;;3.55;;
11935;SDS011;6027;48.576;9.180;2022-07-30T03:38:13;6.75;;;3.80;;
11935;SDS011;6027;48.576;9.180;2022-07-30T03:40:40;4.20;;;2.97;;
11935;SDS011;6027;48.576;9.180;2022-07-30T03:43:07;3.50;;;3.20;;
11935;SDS011;6027;48.576;9.180;2022-07-30T03:45:35;4.60;;;3.50;;
11935;SDS011;6027;48.576;9.180;2022-07-30T03:48:02;4.07;;;3.40;;
11935;SDS011;6027;48.576;9.180;2022-07-30T03:50:29;5.22;;;3.40;;
11935;SDS011;6027;48.576;9.180;2022-07-30T03:52:55;3.45;;;3.15;;
11935;SDS011;6027;48.576;9.180;2022-07-30T03:55:21;4.00;;;3.58;;
11935;SDS011;6027;48.576;9.180;2022-07-30T03:57:47;3.92;;;3.53;;
11935;SDS011;6027;48.576;9.180;2022-07-30T04:00:14;4.43;;;3.45;;
11935;SDS011;6027;48.576;9.180;2022-07-30T04:02:43;8.55;;;4.45;;
11935;SDS011;6027;48.576;9.180;2022-07-30T04:05:11;7.95;;;3.90;;
11935;SDS011;6027;48.576;9.180;2022-07-30T04:07:39;5.63;;;4.10;;
11935;SDS011;6027;48.576;9.180;2022-07-30T04:10:06;4.30;;;3.90;;
11935;SDS011;6027;48.576;9.180;2022-07-30T04:12:31;4.00;;;3.70;;
11935;SDS011;6027;48.576;9.180;2022-07-30T04:14:57;5.45;;;3.63;;
11935;SDS011;6027;48.576;9.180;2022-07-30T04:20:03;6.60;;;4.28;;
11935;SDS011;6027;48.576;9.180;2022-07-30T04:22:33;5.85;;;3.97;;
11935;SDS011;6027;48.576;9.180;2022-07-30T04:25:03;6.38;;;3.97;;
11935;SDS011;6027;48.576;9.180;2022-07-30T04:27:31;5.93;;;3.78;;
11935;SDS011;6027;48.576;9.180;2022-07-30T04:29:58;4.10;;;3.70;;
11935;SDS011;6027;48.576;9.180;2022-07-30T04:32:24;7.72;;;4.03;;
11935;SDS011;6027;48.576;9.180;2022-07-30T04:34:51;5.22;;;3.35;;
11935;SDS011;6027;48.576;9.180;2022-07-30T04:37:19;4.57;;;3.85;;
11935;SDS011;6027;48.576;9.180;2022-07-30T04:39:46;4.20;;;3.80;;
11935;SDS011;6027;48.576;9.180;2022-07-30T04:42:18;4.30;;;3.90;;
11935;SDS011;6027;48.576;9.180;2022-07-30T04:44:44;6.13;;;4.32;;
11935;SDS011;6027;48.576;9.180;2022-07-30T04:47:09;4.55;;;3.90;;
11935;SDS011;6027;48.576;9.180;2022-07-30T04:49:35;4.43;;;4.03;;
11935;SDS011;6027;48.576;9.180;2022-07-30T04:52:02;5.50;;;4.15;;
11935;SDS011;6027;48.576;9.180;2022-07-30T04:54:32;4.47;;;4.07;;
11935;SDS011;6027;48.576;9.180;2022-07-30T04:57:09;5.18;;;4.30;;
11935;SDS011;6027;48.576;9.180;2022-07-30T04:59:37;4.60;;;4.20;;
11935;SDS011;6027;48.576;9.180;2022-07-30T05:02:04;4.18;;;3.80;;
11935;SDS011;6027;48.576;9.180;2022-07-30T05:04:31;4.95;;;4.13;;
11935;SDS011;6027;48.576;9.180;2022-07-30T05:06:59;4.93;;;4.38;;
11935;SDS011;6027;48.576;9.180;2022-07-30T05:09:26;4.65;;;4.20;;
11935;SDS011;6027;48.576;9.180;2022-07-30T05:11:53;5.25;;;4.45;;
11935;SDS011;6027;48.576;9.180;2022-07-30T05:14:20;7.53;;;4.68;;
11935;SDS011;6027;48.576;9.180;2022-07-30T05:16:47;4.63;;;4.22;;
11935;SDS011;6027;48.576;9.180;2022-07-30T05:19:13;5.28;;;4.55;;
11935;SDS011;6027;48.576;9.180;2022-07-30T05:21:38;4.63;;;4.22;;
11935;SDS011;6027;48.576;9.180;2022-07-30T05:24:04;8.30;;;5.00;;
11935;SDS011;6027;48.576;9.180;2022-07-30T05:26:29;4.82;;;4.43;;
11935;SDS011;6027;48.576;9.180;2022-07-30T05:28:55;6.10;;;4.03;;
11935;SDS011;6027;48.576;9.180;2022-07-30T05:31:20;7.30;;;4.30;;
11935;SDS011;6027;48.576;9.180;2022-07-30T05:33:46;4.70;;;4.30;;
11935;SDS011;6027;48.576;9.180;2022-07-30T05:36:11;5.50;;;5.00;;
11935;SDS011;6027;48.576;9.180;2022-07-30T05:38:37;4.90;;;4.50;;
11935;SDS011;6027;48.576;9.180;2022-07-30T05:41:02;6.38;;;4.43;;
11935;SDS011;6027;48.576;9.180;2022-07-30T05:43:28;5.05;;;4.65;;
11935;SDS011;6027;48.576;9.180;2022-07-30T05:45:53;6.00;;;4.47;;
11935;SDS011;6027;48.576;9.180;2022-07-30T05:48:19;7.28;;;5.05;;
11935;SDS011;6027;48.576;9.180;2022-07-30T05:50:44;5.15;;;4.70;;
11935;SDS011;6027;48.576;9.180;2022-07-30T05:53:10;6.28;;;4.65;;
11935;SDS011;6027;48.576;9.180;2022-07-30T05:55:35;8.05;;;4.93;;
11935;SDS011;6027;48.576;9.180;2022-07-30T05:58:01;6.18;;;4.38;;
11935;SDS011;6027;48.576;9.180;2022-07-30T06:00:26;5.28;;;4.78;;
11935;SDS011;6027;48.576;9.180;2022-07-30T06:02:52;6.80;;;5.00;;
11935;SDS011;6027;48.576;9.180;2022-07-30T06:05:17;8.68;;;4.50;;
11935;SDS011;6027;48.576;9.180;2022-07-30T06:07:43;6.53;;;4.53;;
11935;SDS011;6027;48.576;9.180;2022-07-30T06:10:08;4.90;;;4.50;;
11935;SDS011;6027;48.576;9.180;2022-07-30T06:12:34;5.38;;;4.45;;
11935;SDS011;6027;48.576;9.180;2022-07-30T06:14:59;5.78;;;4.88;;
11935;SDS011;6027;48.576;9.180;2022-07-30T06:17:25;5.88;;;4.85;;
11935;SDS011;6027;48.576;9.180;2022-07-30T06:19:50;6.22;;;4.40;;
11935;SDS011;6027;48.576;9.180;2022-07-30T06:22:17;4.93;;;4.40;;
11935;SDS011;6027;48.576;9.180;2022-07-30T06:24:43;6.60;;;4.30;;
11935;SDS011;6027;48.576;9.180;2022-07-30T06:27:08;5.78;;;4.45;;
11935;SDS011;6027;48.576;9.180;2022-07-30T06:29:34;9.32;;;4.45;;
11935;SDS011;6027;48.576;9.180;2022-07-30T06:32:00;5.47;;;4.63;;
11935;SDS011;6027;48.576;9.180;2022-07-30T06:34:26;7.18;;;4.47;;
11935;SDS011;6027;48.576;9.180;2022-07-30T06:36:51;5.43;;;4.13;;
11935;SDS011;6027;48.576;9.180;2022-07-30T06:39:17;6.30;;;4.05;;
11935;SDS011;6027;48.576;9.180;2022-07-30T06:41:43;9.65;;;4.72;;
11935;SDS011;6027;48.576;9.180;2022-07-30T06:44:09;6.80;;;4.47;;
11935;SDS011;6027;48.576;9.180;2022-07-30T06:46:35;5.07;;;4.32;;
11935;SDS011;6027;48.576;9.180;2022-07-30T06:49:01;4.53;;;4.13;;
11935;SDS011;6027;48.576;9.180;2022-07-30T06:51:27;5.00;;;4.50;;
11935;SDS011;6027;48.576;9.180;2022-07-30T06:53:52;7.05;;;4.55;;
11935;SDS011;6027;48.576;9.180;2022-07-30T06:56:18;5.63;;;5.03;;
11935;SDS011;6027;48.576;9.180;2022-07-30T06:58:44;8.40;;;4.80;;
11935;SDS011;6027;48.576;9.180;2022-07-30T07:01:09;5.80;;;4.40;;
11935;SDS011;6027;48.576;9.180;2022-07-30T07:03:35;5.28;;;4.30;;
11935;SDS011;6027;48.576;9.180;2022-07-30T07:06:01;6.18;;;4.47;;
11935;SDS011;6027;48.576;9.180;2022-07-30T07:08:26;10.35;;;4.47;;
11935;SDS011;6027;48.576;9.180;2022-07-30T07:10:52;5.78;;;4.68;;
11935;SDS011;6027;48.576;9.180;2022-07-30T07:13:17;9.32;;;4.80;;
11935;SDS011;6027;48.576;9.180;2022-07-30T07:15:42;10.40;;;8.00;;
11935;SDS011;6027;48.576;9.180;2022-07-30T07:18:08;12.10;;;6.68;;
11935;SDS011;6027;48.576;9.180;2022-07-30T07:20:36;14.68;;;9.70;;
11935;SDS011;6027;48.576;9.180;2022-07-30T07:23:02;4.97;;;4.57;;
11935;SDS011;6027;48.576;9.180;2022-07-30T07:25:27;8.02;;;5.93;;
11935;SDS011;6027;48.576;9.180;2022-07-30T07:27:53;6.53;;;4.53;;
11935;SDS011;6027;48.576;9.180;2022-07-30T07:30:18;8.40;;;5.47;;
11935;SDS011;6027;48.576;9.180;2022-07-30T07:32:44;7.18;;;5.00;;
11935;SDS011;6027;48.576;9.180;2022-07-30T07:35:09;6.50;;;5.15;;
11935;SDS011;6027;48.576;9.180;2022-07-30T07:37:36;5.82;;;4.72;;
11935;SDS011;6027;48.576;9.180;2022-07-30T07:40:02;8.07;;;4.97;;
11935;SDS011;6027;48.576;9.180;2022-07-30T07:42:28;6.45;;;4.00;;
11935;SDS011;6027;48.576;9.180;2022-07-30T07:44:53;5.88;;;4.63;;
11935;SDS011;6027;48.576;9.180;2022-07-30T07:47:19;6.22;;;4.30;;
11935;SDS011;6027;48.576;9.180;2022-07-30T07:49:44;5.60;;;3.88;;
11935;SDS011;6027;48.576;9.180;2022-07-30T07:52:10;6.60;;;4.10;;
11935;SDS011;6027;48.576;9.180;2022-07-30T07:54:35;5.15;;;4.13;;
11935;SDS011;6027;48.576;9.180;2022-07-30T07:57:01;5.25;;;3.92;;
11935;SDS011;6027;48.576;9.180;2022-07-30T07:59:28;5.13;;;3.78;;
11935;SDS011;6027;48.576;9.180;2022-07-30T08:01:53;4.63;;;3.97;;
11935;SDS011;6027;48.576;9.180;2022-07-30T08:04:18;6.30;;;4.00;;
11935;SDS011;6027;48.576;9.180;2022-07-30T08:06:44;5.45;;;3.30;;
11935;SDS011;6027;48.576;9.180;2022-07-30T08:09:09;4.78;;;3.92;;
11935;SDS011;6027;48.576;9.180;2022-07-30T08:11:35;7.28;;;3.33;;
11935;SDS011;6027;48.576;9.180;2022-07-30T08:14:01;3.90;;;3.50;;
11935;SDS011;6027;48.576;9.180;2022-07-30T08:16:27;5.43;;;3.50;;
11935;SDS011;6027;48.576;9.180;2022-07-30T08:18:53;4.85;;;3.50;;
11935;SDS011;6027;48.576;9.180;2022-07-30T08:21:18;4.75;;;3.38;;
11935;SDS011;6027;48.576;9.180;2022-07-30T08:23:44;4.97;;;2.83;;
11935;SDS011;6027;48.576;9.180;2022-07-30T08:26:09;6.82;;;3.20;;
11935;SDS011;6027;48.576;9.180;2022-07-30T08:28:35;5.40;;;3.33;;
11935;SDS011;6027;48.576;9.180;2022-07-30T08:31:01;5.13;;;3.47;;
11935;SDS011;6027;48.576;9.180;2022-07-30T08:33:27;6.30;;;3.42;;
11935;SDS011;6027;48.576;9.180;2022-07-30T08:35:52;3.88;;;2.83;;
11935;SDS011;6027;48.576;9.180;2022-07-30T08:38:18;7.80;;;3.22;;
11935;SDS011;6027;48.576;9.180;2022-07-30T08:40:43;3.33;;;2.78;;
11935;SDS011;6027;48.576;9.180;2022-07-30T08:43:09;6.30;;;3.50;;
11935;SDS011;6027;48.576;9.180;2022-07-30T08:45:35;5.32;;;2.78;;
11935;SDS011;6027;48.576;9.180;2022-07-30T08:48:01;3.25;;;2.28;;
11935;SDS011;6027;48.576;9.180;2022-07-30T08:50:32;4.68;;;2.50;;
11935;SDS011;6027;48.576;9.180;2022-07-30T08:52:58;8.57;;;2.75;;
11935;SDS011;6027;48.576;9.180;2022-07-30T08:55:26;6.15;;;2.50;;
11935;SDS011;6027;48.576;9.180;2022-07-30T08:57:51;3.28;;;2.67;;
11935;SDS011;6027;48.576;9.180;2022-07-30T09:00:17;7.78;;;2.58;;
11935;SDS011;6027;48.576;9.180;2022-07-30T09:02:43;6.45;;;2.80;;
11935;SDS011;6027;48.576;9.180;2022-07-30T09:05:09;4.53;;;2.80;;
11935;SDS011;6027;48.576;9.180;2022-07-30T09:07:36;9.77;;;2.45;;
11935;SDS011;6027;48.576;9.180;2022-07-30T09:10:02;3.60;;;2.08;;
11935;SDS011;6027;48.576;9.180;2022-07-30T09:15:05;4.97;;;2.35;;
11935;SDS011;6027;48.576;9.180;2022-07-30T09:17:46;5.40;;;1.83;;
11935;SDS011;6027;48.576;9.180;2022-07-30T09:20:20;2.85;;;1.88;;
11935;SDS011;6027;48.576;9.180;2022-07-30T09:22:49;3.28;;;1.75;;
11935;SDS011;6027;48.576;9.180;2022-07-30T09:25:25;4.72;;;2.08;;
11935;SDS011;6027;48.576;9.180;2022-07-30T09:27:57;2.13;;;1.80;;
11935;SDS011;6027;48.576;9.180;2022-07-30T09:30:23;3.92;;;2.00;;
11935;SDS011;6027;48.576;9.180;2022-07-30T09:32:52;4.00;;;1.52;;
11935;SDS011;6027;48.576;9.180;2022-07-30T09:35:19;2.53;;;1.83;;
11935;SDS011;6027;48.576;9.180;2022-07-30T09:37:47;1.98;;;1.80;;
11935;SDS011;6027;48.576;9.180;2022-07-30T09:40:23;6.38;;;1.77;;
11935;SDS011;6027;48.576;9.180;2022-07-30T09:43:00;11.35;;;2.45;;
11935;SDS011;6027;48.576;9.180;2022-07-30T09:45:35;8.25;;;2.15;;
11935;SDS011;6027;48.576;9.180;2022-07-30T09:48:23;6.32;;;1.90;;
11935;SDS011;6027;48.576;9.180;2022-07-30T09:50:52;3.28;;;1.75;;
11935;SDS011;6027;48.576;9.180;2022-07-30T09:53:19;2.75;;;1.70;;
11935;SDS011;6027;48.576;9.180;2022-07-30T09:55:47;3.97;;;1.83;;
11935;SDS011;6027;48.576;9.180;2022-07-30T09:58:13;4.65;;;1.85;;
11935;SDS011;6027;48.576;9.180;2022-07-30T10:00:39;5.97;;;2.00;;
11935;SDS011;6027;48.576;9.180;2022-07-30T10:03:19;2.08;;;1.50;;
11935;SDS011;6027;48.576;9.180;2022-07-30T10:05:49;4.07;;;1.80;;
11935;SDS011;6027;48.576;9.180;2022-07-30T10:08:19;5.00;;;1.77;;
11935;SDS011;6027;48.576;9.180;2022-07-30T10:10:45;1.85;;;1.40;;
11935;SDS011;6027;48.576;9.180;2022-07-30T10:13:12;5.80;;;1.42;;
11935;SDS011;6027;48.576;9.180;2022-07-30T10:15:38;4.00;;;1.38;;
11935;SDS011;6027;48.576;9.180;2022-07-30T10:18:04;1.50;;;1.40;;
11935;SDS011;6027;48.576;9.180;2022-07-30T10:20:31;4.82;;;1.90;;
11935;SDS011;6027;48.576;9.180;2022-07-30T10:22:57;4.72;;;1.40;;
11935;SDS011;6027;48.576;9.180;2022-07-30T10:25:23;3.30;;;1.63;;
11935;SDS011;6027;48.576;9.180;2022-07-30T10:27:50;3.72;;;1.55;;
11935;SDS011;6027;48.576;9.180;2022-07-30T10:30:17;3.67;;;1.58;;
11935;SDS011;6027;48.576;9.180;2022-07-30T10:32:43;3.70;;;1.60;;
11935;SDS011;6027;48.576;9.180;2022-07-30T10:35:09;3.40;;;1.75;;
11935;SDS011;6027;48.576;9.180;2022-07-30T10:37:36;1.75;;;1.38;;
11935;SDS011;6027;48.576;9.180;2022-07-30T10:48:45;5.07;;;1.85;;
11935;SDS011;6027;48.576;9.180;2022-07-30T10:51:11;6.30;;;1.30;;
11935;SDS011;6027;48.576;9.180;2022-07-30T10:53:38;7.05;;;1.77;;
11935;SDS011;6027;48.576;9.180;2022-07-30T10:56:18;4.32;;;1.70;;
11935;SDS011;6027;48.576;9.180;2022-07-30T10:59:07;1.98;;;1.55;;
11935;SDS011;6027;48.576;9.180;2022-07-30T11:04:25;3.20;;;1.60;;
11935;SDS011;6027;48.576;9.180;2022-07-30T11:06:52;1.33;;;1.20;;
11935;SDS011;6027;48.576;9.180;2022-07-30T11:09:42;4.22;;;1.60;;
11935;SDS011;6027;48.576;9.180;2022-07-30T11:12:08;3.25;;;1.50;;
11935;SDS011;6027;48.576;9.180;2022-07-30T11:17:12;4.15;;;1.45;;
11935;SDS011;6027;48.576;9.180;2022-07-30T11:22:30;2.05;;;1.40;;
11935;SDS011;6027;48.576;9.180;2022-07-30T11:25:05;3.80;;;1.90;;
11935;SDS011;6027;48.576;9.180;2022-07-30T11:27:35;4.50;;;1.48;;
11935;SDS011;6027;48.576;9.180;2022-07-30T11:30:02;2.00;;;1.40;;
11935;SDS011;6027;48.576;9.180;2022-07-30T11:32:51;3.63;;;1.45;;
11935;SDS011;6027;48.576;9.180;2022-07-30T11:35:19;3.40;;;1.60;;
11935;SDS011;6027;48.576;9.180;2022-07-30T11:43:27;2.97;;;1.20;;
11935;SDS011;6027;48.576;9.180;2022-07-30T11:48:57;2.92;;;1.50;;
11935;SDS011;6027;48.576;9.180;2022-07-30T11:51:31;2.22;;;1.23;;
11935;SDS011;6027;48.576;9.180;2022-07-30T11:54:08;2.85;;;1.42;;
11935;SDS011;6027;48.576;9.180;2022-07-30T11:59:15;4.10;;;1.30;;
11935;SDS011;6027;48.576;9.180;2022-07-30T12:01:41;1.70;;;1.15;;
11935;SDS011;6027;48.576;9.180;2022-07-30T12:04:07;2.10;;;1.40;;
11935;SDS011;6027;48.576;9.180;2022-07-30T12:06:41;3.22;;;1.40;;
11935;SDS011;6027;48.576;9.180;2022-07-30T12:09:08;1.73;;;1.30;;
11935;SDS011;6027;48.576;9.180;2022-07-30T12:11:33;5.75;;;1.40;;
11935;SDS011;6027;48.576;9.180;2022-07-30T12:14:01;1.77;;;1.42;;
11935;SDS011;6027;48.576;9.180;2022-07-30T12:16:27;2.90;;;1.40;;
11935;SDS011;6027;48.576;9.180;2022-07-30T12:18:54;6.75;;;1.67;;
11935;SDS011;6027;48.576;9.180;2022-07-30T12:21:25;2.78;;;1.50;;
11935;SDS011;6027;48.576;9.180;2022-07-30T12:23:55;7.22;;;1.50;;
11935;SDS011;6027;48.576;9.180;2022-07-30T12:26:24;2.47;;;1.27;;
11935;SDS011;6027;48.576;9.180;2022-07-30T12:28:55;3.50;;;1.30;;
11935;SDS011;6027;48.576;9.180;2022-07-30T12:31:22;3.55;;;1.35;;
11935;SDS011;6027;48.576;9.180;2022-07-30T12:33:48;1.75;;;1.45;;
11935;SDS011;6027;48.576;9.180;2022-07-30T12:38:55;2.45;;;1.33;;
11935;SDS011;6027;48.576;9.180;2022-07-30T12:41:22;1.52;;;1.25;;
11935;SDS011;6027;48.576;9.180;2022-07-30T12:44:04;2.10;;;1.30;;
11935;SDS011;6027;48.576;9.180;2022-07-30T12:46:35;3.58;;;1.30;;
11935;SDS011;6027;48.576;9.180;2022-07-30T12:49:03;2.42;;;1.42;;
11935;SDS011;6027;48.576;9.180;2022-07-30T12:51:30;3.08;;;1.38;;
11935;SDS011;6027;48.576;9.180;2022-07-30T12:53:58;1.92;;;1.27;;
11935;SDS011;6027;48.576;9.180;2022-07-30T12:56:26;4.57;;;1.08;;
11935;SDS011;6027;48.576;9.180;2022-07-30T12:58:54;1.90;;;1.30;;
11935;SDS011;6027;48.576;9.180;2022-07-30T13:01:40;2.05;;;1.23;;
11935;SDS011;6027;48.576;9.180;2022-07-30T13:04:07;3.50;;;1.20;;
11935;SDS011;6027;48.576;9.180;2022-07-30T13:06:33;3.65;;;1.30;;
11935;SDS011;6027;48.576;9.180;2022-07-30T13:08:59;3.80;;;1.13;;
11935;SDS011;6027;48.576;9.180;2022-07-30T13:11:46;1.97;;;1.50;;
11935;SDS011;6027;48.576;9.180;2022-07-30T13:14:11;1.15;;;1.13;;
11935;SDS011;6027;48.576;9.180;2022-07-30T13:16:39;1.55;;;1.40;;
11935;SDS011;6027;48.576;9.180;2022-07-30T13:19:06;1.30;;;1.10;;
11935;SDS011;6027;48.576;9.180;2022-07-30T13:21:33;2.28;;;1.20;;
11935;SDS011;6027;48.576;9.180;2022-07-30T13:23:59;1.33;;;1.23;;
11935;SDS011;6027;48.576;9.180;2022-07-30T13:26:25;3.70;;;1.30;;
11935;SDS011;6027;48.576;9.180;2022-07-30T13:28:53;2.55;;;1.20;;
11935;SDS011;6027;48.576;9.180;2022-07-30T13:31:20;2.85;;;1.35;;
11935;SDS011;6027;48.576;9.180;2022-07-30T13:33:46;2.55;;;1.20;;
11935;SDS011;6027;48.576;9.180;2022-07-30T13:36:11;1.50;;;1.40;;
11935;SDS011;6027;48.576;9.180;2022-07-30T13:38:37;2.25;;;1.30;;
11935;SDS011;6027;48.576;9.180;2022-07-30T13:41:03;6.55;;;1.27;;
11935;SDS011;6027;48.576;9.180;2022-07-30T13:43:29;1.70;;;1.15;;
11935;SDS011;6027;48.576;9.180;2022-07-30T13:45:54;1.52;;;1.30;;
11935;SDS011;6027;48.576;9.180;2022-07-30T13:48:20;2.45;;;1.05;;
11935;SDS011;6027;48.576;9.180;2022-07-30T13:50:47;2.00;;;1.30;;
11935;SDS011;6027;48.576;9.180;2022-07-30T13:53:12;3.72;;;1.10;;
11935;SDS011;6027;48.576;9.180;2022-07-30T13:55:38;4.13;;;1.55;;
11935;SDS011;6027;48.576;9.180;2022-07-30T13:58:06;2.25;;;1.10;;
11935;SDS011;6027;48.576;9.180;2022-07-30T14:00:32;1.42;;;1.08;;
11935;SDS011;6027;48.576;9.180;2022-07-30T14:03:01;1.55;;;1.08;;
11935;SDS011;6027;48.576;9.180;2022-07-30T14:05:27;3.67;;;1.00;;
11935;SDS011;6027;48.576;9.180;2022-07-30T14:07:53;2.40;;;1.30;;
11935;SDS011;6027;48.576;9.180;2022-07-30T14:10:19;1.20;;;1.10;;
11935;SDS011;6027;48.576;9.180;2022-07-30T14:12:52;2.00;;;1.02;;
11935;SDS011;6027;48.576;9.180;2022-07-30T14:15:19;3.28;;;1.20;;
11935;SDS011;6027;48.576;9.180;2022-07-30T14:17:48;3.65;;;1.25;;
11935;SDS011;6027;48.576;9.180;2022-07-30T14:20:15;4.30;;;1.58;;
11935;SDS011;6027;48.576;9.180;2022-07-30T14:22:41;1.77;;;1.42;;
11935;SDS011;6027;48.576;9.180;2022-07-30T14:25:07;3.00;;;1.23;;
11935;SDS011;6027;48.576;9.180;2022-07-30T14:27:33;2.22;;;1.38;;
11935;SDS011;6027;48.576;9.180;2022-07-30T14:30:00;2.70;;;1.20;;
11935;SDS011;6027;48.576;9.180;2022-07-30T14:32:27;2.20;;;1.10;;
11935;SDS011;6027;48.576;9.180;2022-07-30T14:34:54;2.50;;;1.38;;
11935;SDS011;6027;48.576;9.180;2022-07-30T14:37:19;2.80;;;1.30;;
11935;SDS011;6027;48.576;9.180;2022-07-30T14:39:45;1.77;;;1.10;;
11935;SDS011;6027;48.576;9.180;2022-07-30T14:42:11;2.95;;;1.40;;
11935;SDS011;6027;48.576;9.180;2022-07-30T14:44:36;1.77;;;1.15;;
11935;SDS011;6027;48.576;9.180;2022-07-30T14:47:02;2.65;;;1.00;;
11935;SDS011;6027;48.576;9.180;2022-07-30T14:49:27;2.05;;;1.23;;
11935;SDS011;6027;48.576;9.180;2022-07-30T14:51:53;2.72;;;1.40;;
11935;SDS011;6027;48.576;9.180;2022-07-30T14:54:18;2.78;;;1.20;;
11935;SDS011;6027;48.576;9.180;2022-07-30T14:56:44;4.88;;;1.50;;
11935;SDS011;6027;48.576;9.180;2022-07-30T14:59:10;1.60;;;1.25;;
11935;SDS011;6027;48.576;9.180;2022-07-30T15:01:35;2.38;;;1.20;;
11935;SDS011;6027;48.576;9.180;2022-07-30T15:04:01;4.32;;;1.38;;
11935;SDS011;6027;48.576;9.180;2022-07-30T15:06:27;3.88;;;1.25;;
11935;SDS011;6027;48.576;9.180;2022-07-30T15:08:52;2.53;;;1.60;;
11935;SDS011;6027;48.576;9.180;2022-07-30T15:11:18;1.75;;;1.30;;
11935;SDS011;6027;48.576;9.180;2022-07-30T15:13:44;4.13;;;1.40;;
11935;SDS011;6027;48.576;9.180;2022-07-30T15:16:09;4.35;;;1.60;;
11935;SDS011;6027;48.576;9.180;2022-07-30T15:18:35;1.50;;;1.20;;
11935;SDS011;6027;48.576;9.180;2022-07-30T15:21:00;2.08;;;1.50;;
11935;SDS011;6027;48.576;9.180;2022-07-30T15:23:26;1.52;;;1.33;;
11935;SDS011;6027;48.576;9.180;2022-07-30T15:25:51;1.40;;;1.30;;
11935;SDS011;6027;48.576;9.180;2022-07-30T15:28:17;4.13;;;1.05;;
11935;SDS011;6027;48.576;9.180;2022-07-30T15:30:43;3.97;;;1.40;;
11935;SDS011;6027;48.576;9.180;2022-07-30T15:33:09;2.05;;;1.40;;
11935;SDS011;6027;48.576;9.180;2022-07-30T15:35:34;1.90;;;1.38;;
11935;SDS011;6027;48.576;9.180;2022-07-30T15:38:00;2.58;;;1.15;;